Beverly Hills, CA

10:14 AM PDT on September 02, 2014 (GMT -0700)
MacDumes - Park La Brea | Change Station
CLOSE
Current Station
Personal Weather Station
Location: Los Angeles, CA
Elevation: 217 ft
Nearby Weather Stations

Elev 217 ft 34.07 °N, 118.35 °W | Updated 1 minute ago

Clear
Clear
82.9 °F
Feels Like 90 °F
N
0.0
Wind Variable Wind from SE
Gusts 0.7 mph

Today
High -- | Low -- °F
--% Chance of Precip.
Yesterday
High -- | Low -- °F
Precip. -- in
6:27 AM 7:17 PM
First Quarter, 53% visible
Pressure 29.85 in
Visibility 10.0 miles
Clouds Clear
Heat Index 90 °F
Dew Point 75 °F
Humidity 76%
Rainfall 0.00 in
Snow Depth Not available.
UV 5 out of 12
Pollen 7.00 out of 12
Ozone Good
Flu Activity Not available.
METAR KSMO 021651Z VRB03KT 10SM CLR 25/16 A2985 RMK AO2 SLP107 T02500156

More Conditions Fewer Conditions

Pressure 29.85 in
Visibility 10.0 miles
Clouds Clear
Heat Index 90 °F
Dew Point 75 °F
Humidity 76%
Rainfall 0.00 in
Snow Depth Not available.
UV 5 out of 12
Pollen 7.00 out of 12
Ozone Good
Flu Activity Not available.
METAR KSMO 021651Z VRB03KT 10SM CLR 25/16 A2985 RMK AO2 SLP107 T02500156

More Conditions Fewer Conditions

10-Day Weather Forecast

Almanac

Astronomy

Sep. 02, 2014 Rise Set
Actual Time 6:27 AM PDT 7:17 PM PDT
Civil Twilight 6:02 AM PDT 7:43 PM PDT
Nautical Twilight 5:32 AM PDT 8:13 PM PDT
Astronomical Twilight 5:01 AM PDT 8:44 PM PDT
Moon 1:57 PM PDT No Moon Set
Length of Visible Light 13h 41m
Length of Day
12h 50m
Tomorrow will be 2m 3s shorter.
First Quarter, 53% of the Moon is Illuminated
Today
First Quarter
Sep 8
Full
Sep 15
Last Quarter
Sep 24
New
Oct 1
First Quarter

Today's Extremes

State Highs State Lows

Community

WunderPhotos

Upload Photos

1,749,719 photos uploaded!

Nearby

Air Quality

  Air Quality AQ Index Pollutant
Yesterday Good
OZONE
Current Good
OZONE
Tuesday Good
PM10
Tuesday Good
OZONE
Tuesday Good
CO
Tuesday Good
NO2

Snow Depth

Station Depth Elevation
Summit Meadow 1 in 9122 ft
Blue Lakes 0 in 8000 ft
Forestdale Creek 0 in 8029 ft
Hagan's Meadow 0 in 8000 ft
CSS Lab 2 in 6900 ft

Earthquake Activity

City Distance Mag. Time & Date
Malibu, California 45 miles 2.5 8:11 AM PDT
2014-08-30
Minimum magnitude displayed is 2.5.

Coastal Water Temperatures

Place Temperature
Santa Monica Pier 72.0 °F
Los Angeles, CA 71.1 °F
La Jolla, CA 71.1 °F

Nearby Weather Stations